createdAt,value
2024-01-03T00:01:09.498Z,37.95
2024-01-03T00:03:38.185Z,44.38
2024-01-03T00:06:07.323Z,79.25
2024-01-03T00:08:36.169Z,67.72
2024-01-03T00:11:04.927Z,32.75
2024-01-03T00:13:39.649Z,36.40
2024-01-03T00:16:23.246Z,32.30
2024-01-03T00:19:00.811Z,58.90
2024-01-03T00:21:31.511Z,61.15
2024-01-03T00:24:12.496Z,64.03
2024-01-03T00:26:42.736Z,105.90
2024-01-03T00:29:26.369Z,109.25
2024-01-03T00:31:55.452Z,95.35
2024-01-03T00:34:24.504Z,94.10
2024-01-03T00:36:55.262Z,106.15
2024-01-03T00:39:27.727Z,44.95
2024-01-03T00:41:56.644Z,44.50
2024-01-03T00:44:25.541Z,41.80
2024-01-03T00:46:55.746Z,43.80
2024-01-03T00:49:25.114Z,43.35
2024-01-03T00:51:54.497Z,46.65
2024-01-03T00:54:24.341Z,38.15
2024-01-03T00:56:54.172Z,42.15
2024-01-03T00:59:23.200Z,49.40
2024-01-03T01:01:51.969Z,51.50
2024-01-03T01:04:20.720Z,43.78
2024-01-03T01:06:49.357Z,48.03
2024-01-03T01:09:17.771Z,54.47
2024-01-03T01:11:46.113Z,72.05
2024-01-03T01:14:14.747Z,77.97
2024-01-03T01:16:43.882Z,90.55
2024-01-03T01:19:12.453Z,80.20
2024-01-03T01:21:44.208Z,56.42
2024-01-03T01:24:12.827Z,43.17
2024-01-03T01:26:41.638Z,51.78
2024-01-03T01:29:11.438Z,59.38
2024-01-03T01:31:40.073Z,51.53
2024-01-03T01:34:08.529Z,53.30
2024-01-03T01:36:37.345Z,57.40
2024-01-03T01:39:05.716Z,68.57
2024-01-03T01:41:34.131Z,62.28
2024-01-03T01:44:02.554Z,63.20
2024-01-03T01:46:31.138Z,70.20
2024-01-03T01:49:00.394Z,65.47
2024-01-03T01:51:29.241Z,65.57
2024-01-03T01:53:57.955Z,43.63
2024-01-03T01:56:27.634Z,42.33
2024-01-03T01:58:56.212Z,54.05
2024-01-03T02:01:25.152Z,59.20
2024-01-03T02:03:55.019Z,68.50
2024-01-03T02:06:23.959Z,93.60
2024-01-03T02:08:52.502Z,68.07
2024-01-03T02:11:20.964Z,57.00
2024-01-03T02:13:52.394Z,61.53
2024-01-03T02:16:20.878Z,70.03
2024-01-03T02:18:49.624Z,102.25
2024-01-03T02:21:18.849Z,116.20
2024-01-03T02:23:47.452Z,102.65
2024-01-03T02:26:25.741Z,81.88
2024-01-03T02:28:58.308Z,91.55
2024-01-03T02:31:27.391Z,96.05
2024-01-03T02:33:55.944Z,103.53
2024-01-03T02:36:27.993Z,103.18
2024-01-03T02:38:59.555Z,112.30
2024-01-03T02:41:28.490Z,134.07
2024-01-03T02:43:56.795Z,122.43
2024-01-03T02:46:25.286Z,135.63
2024-01-03T02:48:53.932Z,143.10
2024-01-03T02:51:23.726Z,135.35
2024-01-03T02:53:52.660Z,138.32
2024-01-03T02:56:21.163Z,125.13
2024-01-03T02:58:56.385Z,103.28
2024-01-03T03:01:26.291Z,88.55
2024-01-03T03:03:55.082Z,94.43
2024-01-03T03:06:25.531Z,80.10
2024-01-03T03:09:08.967Z,96.00
2024-01-03T03:11:44.767Z,81.07
2024-01-03T03:14:13.029Z,91.82
2024-01-03T03:16:41.309Z,89.28
2024-01-03T03:19:09.932Z,83.45
2024-01-03T03:21:38.269Z,129.45
2024-01-03T03:24:07.075Z,161.15
2024-01-03T03:26:35.582Z,170.77
2024-01-03T03:29:03.791Z,123.28
2024-01-03T03:31:32.178Z,143.13
2024-01-03T03:34:00.695Z,113.95
2024-01-03T03:36:29.219Z,129.95
2024-01-03T03:38:57.996Z,88.47
2024-01-03T03:41:26.694Z,116.32
2024-01-03T03:43:55.146Z,110.32
2024-01-03T03:46:23.453Z,75.00
2024-01-03T03:48:52.456Z,69.25
2024-01-03T03:51:20.832Z,66.13
2024-01-03T03:53:49.223Z,56.65
2024-01-03T03:56:28.123Z,64.47
2024-01-03T03:58:56.801Z,58.33
2024-01-03T04:01:25.428Z,48.05
2024-01-03T04:03:55.413Z,53.70
2024-01-03T04:06:23.883Z,48.00
2024-01-03T04:08:52.382Z,51.35
2024-01-03T04:11:20.762Z,53.42
2024-01-03T04:13:49.313Z,43.83
2024-01-03T04:16:18.175Z,39.78
2024-01-03T04:18:46.630Z,64.60
2024-01-03T04:21:15.475Z,60.35
2024-01-03T04:23:43.782Z,65.68
2024-01-03T04:26:12.613Z,55.58
2024-01-03T04:28:41.057Z,107.65
2024-01-03T04:31:09.271Z,127.93
2024-01-03T04:33:38.003Z,116.85
2024-01-03T04:36:07.225Z,112.63
2024-01-03T04:38:35.930Z,87.05
2024-01-03T04:41:07.402Z,88.28
2024-01-03T04:43:37.425Z,62.70
2024-01-03T04:46:05.682Z,76.68
2024-01-03T04:48:34.180Z,74.30
2024-01-03T04:51:02.908Z,99.93
2024-01-03T04:53:31.156Z,92.25
2024-01-03T04:55:59.608Z,100.25
2024-01-03T04:58:28.053Z,97.53
2024-01-03T05:00:56.332Z,97.45
2024-01-03T05:03:24.889Z,92.38
2024-01-03T05:05:53.510Z,104.90
2024-01-03T05:08:21.953Z,84.93
2024-01-03T05:10:50.245Z,62.38
2024-01-03T05:13:18.580Z,68.40
2024-01-03T05:15:46.905Z,58.90
2024-01-03T05:18:15.706Z,55.35
2024-01-03T05:20:44.559Z,57.47
2024-01-03T05:23:12.790Z,60.70
2024-01-03T05:25:41.170Z,53.53
2024-01-03T05:28:09.844Z,63.45
2024-01-03T05:30:38.282Z,58.22
2024-01-03T05:33:06.956Z,86.97
2024-01-03T05:35:35.594Z,89.10
2024-01-03T05:38:03.917Z,84.45
2024-01-03T05:40:32.420Z,84.53
2024-01-03T05:43:00.903Z,93.10
2024-01-03T05:45:29.312Z,101.00
2024-01-03T05:48:02.840Z,89.35
2024-01-03T05:50:33.462Z,89.95
2024-01-03T05:53:05.805Z,91.43
2024-01-03T05:55:35.702Z,90.47
2024-01-03T05:58:04.073Z,80.03
2024-01-03T06:00:32.321Z,85.70
2024-01-03T06:03:00.796Z,74.10
2024-01-03T06:05:29.210Z,66.65
2024-01-03T06:07:57.803Z,71.93
2024-01-03T06:10:29.094Z,56.90
2024-01-03T06:13:02.025Z,79.95
2024-01-03T06:15:31.957Z,73.13
2024-01-03T06:18:00.530Z,73.25
2024-01-03T06:20:29.250Z,82.78
2024-01-03T06:22:57.708Z,80.50
2024-01-03T06:25:26.031Z,71.40
2024-01-03T06:27:54.615Z,79.40
2024-01-03T06:30:23.522Z,71.68
2024-01-03T06:32:51.938Z,76.72
2024-01-03T06:35:20.271Z,69.25
2024-01-03T06:37:48.793Z,68.07
2024-01-03T06:40:17.142Z,67.45
2024-01-03T06:42:45.628Z,58.45
2024-01-03T06:45:14.016Z,71.25
2024-01-03T06:47:43.335Z,76.78
2024-01-03T06:50:12.544Z,87.88
2024-01-03T06:52:41.101Z,86.25
2024-01-03T06:55:10.826Z,107.60
2024-01-03T06:57:39.124Z,126.68
2024-01-03T07:00:08.108Z,97.10
2024-01-03T07:02:36.564Z,89.10
2024-01-03T07:05:05.163Z,81.35
2024-01-03T07:07:34.198Z,72.30
2024-01-03T07:10:02.971Z,79.72
2024-01-03T07:12:31.166Z,77.95
2024-01-03T07:14:59.523Z,86.68
2024-01-03T07:17:28.003Z,84.15
2024-01-03T07:19:56.330Z,71.68
2024-01-03T07:22:25.161Z,77.28
2024-01-03T07:24:53.454Z,75.80
2024-01-03T07:27:21.881Z,68.97
2024-01-03T07:29:50.312Z,87.18
2024-01-03T07:32:18.623Z,76.53
2024-01-03T07:34:47.129Z,80.68
2024-01-03T07:37:15.549Z,92.05
2024-01-03T07:39:43.971Z,82.68
2024-01-03T07:42:12.287Z,105.35
2024-01-03T07:44:40.926Z,123.82
2024-01-03T07:47:10.295Z,110.28
2024-01-03T07:49:39.560Z,108.97
2024-01-03T07:54:47.757Z,91.75
2024-01-03T07:57:16.182Z,78.25
2024-01-03T07:59:44.459Z,69.25
2024-01-03T08:02:13.861Z,92.60
2024-01-03T08:04:42.186Z,74.95
2024-01-03T08:07:10.717Z,75.32
2024-01-03T08:09:39.127Z,61.55
2024-01-03T08:12:08.682Z,64.80
2024-01-03T08:14:37.742Z,71.93
2024-01-03T08:17:06.538Z,52.38
2024-01-03T08:19:35.104Z,59.65
2024-01-03T08:22:03.697Z,54.80
2024-01-03T08:24:33.761Z,49.22
2024-01-03T08:27:02.395Z,56.85
2024-01-03T08:29:30.709Z,53.30
2024-01-03T08:31:59.404Z,65.20
2024-01-03T08:34:27.758Z,73.13
2024-01-03T08:36:56.118Z,56.85
2024-01-03T08:39:24.558Z,57.38
2024-01-03T08:41:53.043Z,68.15
2024-01-03T08:44:24.627Z,56.83
2024-01-03T08:46:53.079Z,64.32
2024-01-03T08:49:21.650Z,46.38
2024-01-03T08:51:50.105Z,55.72
2024-01-03T08:54:18.704Z,45.70
2024-01-03T08:56:51.027Z,54.30
2024-01-03T08:59:19.399Z,44.60
2024-01-03T09:01:52.966Z,52.35
2024-01-03T09:04:21.559Z,56.13
2024-01-03T09:06:51.007Z,47.83
2024-01-03T09:09:19.583Z,66.28
2024-01-03T09:11:47.825Z,49.97
2024-01-03T09:14:16.326Z,58.47
2024-01-03T09:16:44.615Z,51.08
2024-01-03T09:19:13.052Z,72.20
2024-01-03T09:21:48.056Z,65.65
2024-01-03T09:24:17.011Z,43.25
2024-01-03T09:26:45.508Z,36.60
2024-01-03T09:29:14.378Z,41.78
2024-01-03T09:31:43.826Z,37.03
2024-01-03T09:34:12.999Z,49.45
2024-01-03T09:36:41.636Z,34.85
2024-01-03T09:39:10.277Z,50.20
2024-01-03T09:41:40.182Z,45.33
2024-01-03T09:44:09.185Z,31.60
2024-01-03T09:46:37.627Z,33.10
2024-01-03T09:49:06.282Z,42.10
2024-01-03T09:51:35.698Z,30.80
2024-01-03T09:54:05.558Z,43.58
2024-01-03T09:56:33.992Z,28.35
2024-01-03T09:59:02.504Z,29.75
2024-01-03T10:01:30.677Z,34.25
2024-01-03T10:03:59.283Z,29.58
2024-01-03T10:06:27.840Z,27.15
2024-01-03T10:09:04.801Z,45.15
2024-01-03T10:11:33.665Z,27.15
2024-01-03T10:14:19.202Z,29.98
2024-01-03T10:16:48.185Z,42.00
2024-01-03T10:19:19.725Z,44.65
2024-01-03T10:21:52.378Z,29.27
2024-01-03T10:24:22.527Z,43.10
2024-01-03T10:26:51.031Z,27.08
2024-01-03T10:29:21.747Z,42.88
2024-01-03T10:31:51.967Z,30.58
2024-01-03T10:34:26.485Z,34.35
2024-01-03T10:36:56.189Z,32.97
2024-01-03T10:39:24.863Z,32.75
2024-01-03T10:41:55.363Z,44.63
2024-01-03T10:44:23.890Z,46.72
2024-01-03T10:46:53.067Z,44.92
2024-01-03T10:49:21.752Z,29.00
2024-01-03T10:51:58.757Z,42.65
2024-01-03T10:54:33.459Z,32.67
2024-01-03T10:57:01.946Z,38.25
2024-01-03T10:59:38.215Z,57.05
2024-01-03T11:02:16.759Z,42.17
2024-01-03T11:04:50.642Z,27.85
2024-01-03T11:07:36.710Z,48.80
2024-01-03T11:10:05.490Z,33.03
2024-01-03T11:12:33.752Z,51.63
2024-01-03T11:15:37.812Z,29.27
2024-01-03T11:18:35.623Z,27.75
2024-01-03T11:21:25.470Z,32.22
2024-01-03T11:23:54.900Z,37.40
2024-01-03T11:26:55.157Z,50.67
2024-01-03T11:29:39.425Z,37.63
2024-01-03T11:32:09.639Z,44.28
2024-01-03T11:34:38.610Z,43.38
2024-01-03T11:37:18.943Z,29.13
2024-01-03T11:39:49.736Z,46.53
2024-01-03T11:42:38.380Z,41.03
2024-01-03T11:45:16.880Z,57.58
2024-01-03T11:47:46.823Z,60.67
2024-01-03T11:50:17.621Z,42.67
2024-01-03T11:52:48.218Z,32.45
2024-01-03T11:55:20.419Z,33.58
2024-01-03T11:57:51.092Z,39.35
2024-01-03T12:00:21.733Z,32.58
2024-01-03T12:02:59.503Z,42.25
2024-01-03T12:05:29.441Z,38.00
2024-01-03T12:07:59.403Z,28.42
2024-01-03T12:10:28.177Z,38.20
2024-01-03T12:12:56.632Z,31.27
2024-01-03T12:18:08.224Z,23.58
2024-01-03T12:20:36.832Z,32.65
2024-01-03T12:23:10.054Z,48.08
2024-01-03T12:25:38.752Z,53.90
2024-01-03T12:28:07.331Z,29.63
2024-01-03T12:30:36.007Z,37.95
2024-01-03T12:33:09.948Z,41.80
2024-01-03T12:35:38.962Z,47.90
2024-01-03T12:38:07.783Z,41.08
2024-01-03T12:40:36.412Z,44.85
2024-01-03T12:43:04.891Z,60.78
2024-01-03T12:45:33.172Z,34.75
2024-01-03T12:48:01.821Z,28.80
2024-01-03T12:50:30.283Z,47.80
2024-01-03T12:52:58.797Z,18.45
2024-01-03T12:55:27.217Z,28.98
2024-01-03T12:57:55.743Z,53.55
2024-01-03T13:00:24.316Z,37.35
2024-01-03T13:02:54.412Z,69.57
2024-01-03T13:05:23.110Z,36.38
2024-01-03T13:07:51.879Z,36.42
2024-01-03T13:10:20.141Z,18.17
2024-01-03T13:12:49.569Z,46.95
2024-01-03T13:15:18.079Z,36.30
2024-01-03T13:17:46.730Z,30.45
2024-01-03T13:20:15.370Z,63.92
2024-01-03T13:22:43.928Z,58.83
2024-01-03T13:25:12.778Z,30.42
2024-01-03T13:27:43.096Z,46.10
2024-01-03T13:30:13.924Z,33.50
2024-01-03T13:32:42.347Z,33.40
2024-01-03T13:35:10.819Z,43.17
2024-01-03T13:37:39.381Z,61.83
2024-01-03T13:40:08.434Z,33.58
2024-01-03T13:42:36.983Z,53.63
2024-01-03T13:45:05.868Z,61.03
2024-01-03T13:47:34.431Z,29.63
2024-01-03T13:50:02.985Z,45.20
2024-01-03T13:52:31.801Z,27.65
2024-01-03T13:55:00.287Z,66.05
2024-01-03T13:57:28.642Z,36.40
2024-01-03T13:59:57.349Z,58.60
2024-01-03T14:02:25.586Z,46.42
2024-01-03T14:04:53.917Z,48.30
2024-01-03T14:07:22.462Z,28.65
2024-01-03T14:09:50.733Z,26.63
2024-01-03T14:12:19.172Z,28.85
2024-01-03T14:14:47.598Z,35.47
2024-01-03T14:17:15.845Z,24.35
2024-01-03T14:19:44.418Z,30.80
2024-01-03T14:22:13.539Z,37.88
2024-01-03T14:24:41.946Z,39.85
2024-01-03T14:27:10.455Z,24.27
2024-01-03T14:29:39.215Z,51.17
2024-01-03T14:32:13.397Z,41.58
2024-01-03T14:34:42.793Z,33.83
2024-01-03T14:37:11.997Z,45.03
2024-01-03T14:39:41.578Z,61.85
2024-01-03T14:42:11.380Z,55.00
2024-01-03T14:44:39.884Z,42.28
2024-01-03T14:47:08.181Z,52.47
2024-01-03T14:49:36.713Z,45.22
2024-01-03T14:52:06.208Z,28.00
2024-01-03T14:54:36.328Z,24.95
2024-01-03T14:57:05.643Z,32.13
2024-01-03T14:59:33.939Z,49.08
2024-01-03T15:02:02.537Z,34.08
2024-01-03T15:04:30.955Z,32.72
2024-01-03T15:07:00.465Z,36.20
2024-01-03T15:09:29.051Z,40.83
2024-01-03T15:11:57.399Z,28.73
2024-01-03T15:14:26.256Z,27.00
2024-01-03T15:16:54.699Z,36.05
2024-01-03T15:19:23.420Z,43.22
2024-01-03T15:22:20.984Z,36.38
2024-01-03T15:24:49.445Z,71.35
2024-01-03T15:27:17.804Z,51.65
2024-01-03T15:29:46.060Z,47.42
2024-01-03T15:32:14.488Z,28.75
2024-01-03T15:34:43.172Z,45.38
2024-01-03T15:37:12.336Z,24.75
2024-01-03T15:39:41.064Z,37.75
2024-01-03T15:42:09.469Z,40.67
2024-01-03T15:44:38.603Z,34.25
2024-01-03T15:47:07.471Z,40.33
2024-01-03T15:49:36.310Z,27.52
2024-01-03T15:52:06.763Z,46.30
2024-01-03T15:54:45.680Z,54.97
2024-01-03T15:57:17.511Z,45.07
2024-01-03T15:59:46.517Z,45.60
2024-01-03T16:02:15.104Z,32.83
2024-01-03T16:04:43.563Z,32.90
2024-01-03T16:07:12.363Z,34.30
2024-01-03T16:09:40.844Z,32.28
2024-01-03T16:12:09.806Z,43.42
2024-01-03T16:14:38.665Z,29.17
2024-01-03T16:17:07.496Z,36.38
2024-01-03T16:19:36.071Z,54.67
2024-01-03T16:22:04.735Z,34.10
2024-01-03T16:24:33.302Z,92.10
2024-01-03T16:27:01.693Z,83.30
2024-01-03T16:29:30.173Z,39.92
2024-01-03T16:32:00.045Z,42.50
2024-01-03T16:34:28.556Z,57.40
2024-01-03T16:36:58.718Z,43.83
2024-01-03T16:39:27.063Z,33.28
2024-01-03T16:41:55.940Z,39.08
2024-01-03T16:44:24.914Z,38.40
2024-01-03T16:46:54.340Z,34.95
2024-01-03T16:49:24.064Z,28.23
2024-01-03T16:51:52.603Z,48.28
2024-01-03T16:54:21.283Z,65.75
2024-01-03T16:56:49.824Z,60.92
2024-01-03T16:59:18.967Z,43.30
2024-01-03T17:01:47.766Z,45.10
2024-01-03T17:04:17.465Z,39.42
2024-01-03T17:06:47.333Z,65.05
2024-01-03T17:09:17.593Z,198.68
2024-01-03T17:11:46.591Z,106.75
2024-01-03T17:14:15.022Z,372.13
2024-01-03T17:16:43.493Z,204.75
2024-01-03T17:19:12.261Z,124.68
2024-01-03T17:21:41.360Z,367.27
2024-01-03T17:24:10.173Z,188.52
2024-01-03T17:26:39.215Z,135.23
2024-01-03T17:29:08.288Z,208.30
2024-01-03T17:31:37.519Z,160.68
2024-01-03T17:34:07.778Z,124.65
2024-01-03T17:36:36.487Z,119.78
2024-01-03T17:39:04.991Z,68.38
2024-01-03T17:41:33.335Z,122.80
2024-01-03T17:44:01.705Z,91.57
2024-01-03T17:46:29.982Z,132.88
2024-01-03T17:48:58.525Z,123.72
2024-01-03T17:51:27.113Z,116.63
2024-01-03T17:53:55.548Z,106.68
2024-01-03T17:56:25.085Z,139.50
2024-01-03T17:58:54.084Z,104.40
2024-01-03T18:01:22.479Z,179.60
2024-01-03T18:03:51.064Z,147.73
2024-01-03T18:06:19.511Z,150.80
2024-01-03T18:08:47.872Z,111.60
2024-01-03T18:11:16.378Z,128.77
2024-01-03T18:13:44.706Z,139.40
2024-01-03T18:16:13.095Z,156.00
2024-01-03T18:18:41.730Z,123.93
2024-01-03T18:21:10.345Z,183.80
2024-01-03T18:23:39.017Z,190.05
2024-01-03T18:26:07.515Z,112.82
2024-01-03T18:28:35.818Z,102.68
2024-01-03T18:31:04.198Z,95.07
2024-01-03T18:33:36.364Z,99.82
2024-01-03T18:36:04.924Z,76.05
2024-01-03T18:38:33.860Z,160.75
2024-01-03T18:41:02.151Z,173.85
2024-01-03T18:43:30.444Z,142.60
2024-01-03T18:45:59.038Z,143.10
2024-01-03T18:48:27.357Z,149.55
2024-01-03T18:50:56.026Z,150.85
2024-01-03T18:53:24.742Z,146.20
2024-01-03T18:55:53.011Z,139.60
2024-01-03T18:58:21.994Z,102.32
2024-01-03T19:00:50.460Z,112.13
2024-01-03T19:03:19.056Z,90.50
2024-01-03T19:05:47.640Z,98.55
2024-01-03T19:08:16.782Z,107.15
2024-01-03T19:10:45.155Z,145.35
2024-01-03T19:13:13.886Z,170.45
2024-01-03T19:15:42.520Z,163.90
2024-01-03T19:18:11.167Z,193.35
2024-01-03T19:20:40.774Z,192.75
2024-01-03T19:23:10.605Z,155.57
2024-01-03T19:30:05.988Z,182.38
2024-01-03T19:32:38.363Z,179.07
2024-01-03T19:35:11.782Z,87.03
2024-01-03T19:37:44.462Z,101.65
2024-01-03T19:40:15.577Z,116.57
2024-01-03T19:42:44.006Z,72.00
2024-01-03T19:45:13.840Z,108.65
2024-01-03T19:47:46.529Z,93.50
2024-01-03T19:50:15.637Z,63.05
2024-01-03T19:52:49.593Z,66.03
2024-01-03T19:55:18.208Z,75.72
2024-01-03T19:57:47.054Z,87.80
2024-01-03T20:00:19.668Z,97.38
2024-01-03T20:02:49.273Z,126.65
2024-01-03T20:05:22.041Z,109.50
2024-01-03T20:07:50.677Z,109.57
2024-01-03T20:10:18.912Z,110.43
2024-01-03T20:12:47.501Z,116.00
2024-01-03T20:15:15.846Z,129.32
2024-01-03T20:17:44.373Z,73.53
2024-01-03T20:20:13.255Z,81.40
2024-01-03T20:22:42.313Z,84.35
2024-01-03T20:25:10.855Z,85.78
2024-01-03T20:27:43.336Z,96.70
2024-01-03T20:30:13.229Z,117.88
2024-01-03T20:32:43.395Z,121.70
2024-01-03T20:35:12.525Z,105.47
2024-01-03T20:37:42.173Z,99.38
2024-01-03T20:40:11.249Z,100.65
2024-01-03T20:42:41.283Z,135.43
2024-01-03T20:45:13.046Z,116.40
2024-01-03T20:47:42.302Z,115.97
2024-01-03T20:50:17.677Z,142.52
2024-01-03T20:52:48.788Z,127.90
2024-01-03T20:55:18.496Z,92.30
2024-01-03T21:00:42.770Z,118.97
2024-01-03T21:03:11.290Z,86.65
2024-01-03T21:05:42.234Z,72.38
2024-01-03T21:08:10.575Z,63.50
2024-01-03T21:10:41.576Z,71.68
2024-01-03T21:13:14.475Z,123.50
2024-01-03T21:15:44.860Z,132.07
2024-01-03T21:18:16.797Z,131.27
2024-01-03T21:20:51.042Z,130.52
2024-01-03T21:23:22.604Z,153.38
2024-01-03T21:25:51.211Z,101.97
2024-01-03T21:28:19.624Z,93.10
2024-01-03T21:30:48.050Z,73.10
2024-01-03T21:33:16.987Z,71.38
2024-01-03T21:35:50.034Z,54.90
2024-01-03T21:38:18.733Z,91.00
2024-01-03T21:40:47.168Z,110.38
2024-01-03T21:43:16.464Z,123.13
2024-01-03T21:45:44.903Z,104.00
2024-01-03T21:48:13.466Z,87.63
2024-01-03T21:50:42.112Z,66.85
2024-01-03T21:53:10.340Z,64.70
2024-01-03T21:55:40.351Z,54.55
2024-01-03T21:58:10.611Z,46.05
2024-01-03T22:00:39.270Z,68.32
2024-01-03T22:03:08.161Z,55.17
2024-01-03T22:05:37.014Z,56.58
2024-01-03T22:08:06.581Z,54.40
2024-01-03T22:10:35.167Z,52.72
2024-01-03T22:13:03.598Z,47.83
2024-01-03T22:15:32.234Z,46.78
2024-01-03T22:18:00.956Z,34.95
2024-01-03T22:20:29.389Z,53.15
2024-01-03T22:22:57.966Z,40.03
2024-01-03T22:25:26.574Z,50.55
2024-01-03T22:27:54.986Z,90.88
2024-01-03T22:30:23.822Z,81.63
2024-01-03T22:32:52.331Z,58.50
2024-01-03T22:35:20.835Z,61.45
2024-01-03T22:37:49.242Z,67.75
2024-01-03T22:40:17.718Z,53.90
2024-01-03T22:42:46.036Z,51.80
2024-01-03T22:45:15.093Z,51.83
2024-01-03T22:47:43.511Z,49.60
2024-01-03T22:50:12.039Z,48.85
2024-01-03T22:52:40.452Z,48.20
2024-01-03T22:55:09.385Z,52.47
2024-01-03T22:57:37.797Z,53.13
2024-01-03T23:00:06.927Z,43.38
2024-01-03T23:02:35.201Z,47.40
2024-01-03T23:05:03.637Z,95.72
2024-01-03T23:07:32.526Z,85.60
2024-01-03T23:10:00.977Z,78.45
2024-01-03T23:12:29.402Z,64.03
2024-01-03T23:14:57.886Z,63.22
2024-01-03T23:17:26.404Z,64.88
2024-01-03T23:19:55.192Z,67.95
2024-01-03T23:22:23.752Z,84.63
2024-01-03T23:24:52.220Z,59.20
2024-01-03T23:27:20.394Z,60.90
2024-01-03T23:29:49.130Z,63.13
2024-01-03T23:32:17.398Z,43.95
2024-01-03T23:34:45.826Z,62.58
2024-01-03T23:37:14.153Z,65.03
2024-01-03T23:39:42.541Z,60.72
2024-01-03T23:42:10.771Z,66.90
2024-01-03T23:44:39.616Z,83.70
2024-01-03T23:47:07.968Z,82.53
2024-01-03T23:49:36.586Z,98.95
2024-01-03T23:52:05.454Z,69.70
2024-01-03T23:54:33.880Z,63.50
2024-01-03T23:57:02.239Z,76.97
2024-01-03T23:59:30.923Z,108.20
